Time;durP1;ratioP1;P1;durP2;ratioP2;P2;SDS_P1;SDS_P2;PMS_P1;PMS_P2;Temp;Humidity;BMP_temperature;BMP_pressure;BME280_temperature;BME280_humidity;BME280_pressure;Samples;Min_cycle;Max_cycle;Signal;HPM_P1;HPM_P2
2022/10/21 00:00:16;;;;;;;30.77;19.93;;;;;;;8.46;93.42;95540.88;5036659;28;20219;-79
2022/10/21 00:02:43;;;;;;;32.50;20.70;;;;;;;8.47;92.78;95539.09;5044097;28;20221;-77
2022/10/21 00:05:10;;;;;;;30.43;18.57;;;;;;;8.43;93.52;95540.44;5038658;28;20195;-78
2022/10/21 00:07:36;;;;;;;25.37;16.70;;;;;;;8.45;93.03;95539.28;5041433;28;20194;-78
2022/10/21 00:10:04;;;;;;;23.73;14.70;;;;;;;8.41;93.23;95539.81;5041712;28;20193;-77
2022/10/21 00:12:31;;;;;;;23.50;15.20;;;;;;;8.37;93.53;95533.38;5041466;28;20649;-77
2022/10/21 00:14:59;;;;;;;20.47;14.13;;;;;;;8.37;92.76;95533.38;5033749;28;20207;-78
2022/10/21 00:17:26;;;;;;;23.10;15.23;;;;;;;8.34;93.00;95529.38;5043374;28;20198;-77
2022/10/21 00:19:53;;;;;;;27.57;17.43;;;;;;;8.34;93.84;95536.38;5046008;28;20714;-79
2022/10/21 00:22:20;;;;;;;27.30;16.57;;;;;;;8.32;93.59;95533.13;5045041;28;20211;-78
2022/10/21 00:24:47;;;;;;;28.20;17.37;;;;;;;8.20;93.54;95527.59;5048216;28;20194;-79
2022/10/21 00:27:14;;;;;;;28.23;16.70;;;;;;;8.19;93.97;95533.78;5040668;28;20194;-77
2022/10/21 00:29:41;;;;;;;24.33;15.73;;;;;;;8.16;94.47;95533.31;5042970;28;20202;-77
2022/10/21 00:32:09;;;;;;;25.87;15.67;;;;;;;8.15;94.50;95526.53;5051410;28;20190;-77
2022/10/21 00:34:36;;;;;;;28.07;15.67;;;;;;;8.06;94.60;95528.41;5046069;28;20198;-79
2022/10/21 00:37:02;;;;;;;27.73;16.10;;;;;;;8.08;94.84;95525.66;5045365;28;20227;-77
2022/10/21 00:39:29;;;;;;;28.80;17.80;;;;;;;7.97;95.36;95529.50;5049002;28;20606;-77
2022/10/21 00:41:56;;;;;;;28.60;18.40;;;;;;;7.96;95.36;95526.09;5038338;28;20684;-78
2022/10/21 00:44:25;;;;;;;41.93;19.80;;;;;;;7.94;95.04;95527.25;5042145;28;20720;-78
2022/10/21 00:46:57;;;;;;;32.13;19.40;;;;;;;7.89;95.82;95525.22;5039889;28;20268;-78
2022/10/21 00:49:34;;;;;;;30.50;18.60;;;;;;;7.87;95.25;95519.44;5043126;28;20209;-78
2022/10/21 00:52:03;;;;;;;34.57;19.00;;;;;;;7.81;95.72;95514.97;5047000;28;20559;-78
2022/10/21 00:54:31;;;;;;;27.90;18.37;;;;;;;7.78;95.27;95510.16;5041739;28;20893;-77
2022/10/21 00:56:59;;;;;;;29.67;18.97;;;;;;;7.81;95.48;95519.34;5044125;28;20301;-77
2022/10/21 00:59:29;;;;;;;30.00;17.77;;;;;;;7.76;95.68;95517.28;5043079;28;20195;-77
2022/10/21 01:01:56;;;;;;;27.23;18.20;;;;;;;7.72;96.30;95512.66;5039363;28;20218;-78
2022/10/21 01:04:23;;;;;;;29.40;17.83;;;;;;;7.67;95.85;95513.19;5043552;28;20205;-78
2022/10/21 01:06:52;;;;;;;28.53;16.23;;;;;;;7.61;96.74;95502.75;5043784;28;20195;-78
2022/10/21 01:09:20;;;;;;;27.63;15.93;;;;;;;7.51;97.40;95510.75;5045317;28;20256;-77
2022/10/21 01:11:48;;;;;;;25.13;16.07;;;;;;;7.51;97.50;95505.59;5049075;28;20186;-78
2022/10/21 01:14:35;;;;;;;30.17;16.47;;;;;;;7.58;96.81;95511.69;5037887;28;20198;-77
2022/10/21 01:17:14;;;;;;;24.97;16.10;;;;;;;7.52;97.50;95516.75;5044681;28;20198;-78
2022/10/21 01:20:13;;;;;;;26.17;16.23;;;;;;;7.46;97.30;95515.69;5044959;28;20330;-77
2022/10/21 01:23:31;;;;;;;31.77;17.00;;;;;;;7.44;97.22;95518.41;5040693;28;20210;-80
2022/10/21 01:26:32;;;;;;;25.43;16.00;;;;;;;7.42;96.93;95515.22;5013553;28;20234;-77
2022/10/21 01:29:19;;;;;;;31.23;16.17;;;;;;;7.40;97.45;95519.78;5049088;28;20216;-78
2022/10/21 01:31:55;;;;;;;25.93;16.17;;;;;;;7.33;97.60;95513.69;5051568;28;20560;-78
2022/10/21 01:34:27;;;;;;;31.43;16.33;;;;;;;7.36;97.22;95520.28;5049376;28;20198;-78
2022/10/21 01:36:57;;;;;;;27.67;15.97;;;;;;;7.40;97.15;95524.13;5044380;28;20592;-77
2022/10/21 01:39:29;;;;;;;25.40;15.97;;;;;;;7.40;96.99;95519.78;5042010;28;20198;-78
2022/10/21 01:42:02;;;;;;;27.57;15.23;;;;;;;7.42;96.83;95524.75;5046677;28;20231;-77
2022/10/21 01:44:36;;;;;;;24.20;15.03;;;;;;;7.41;96.56;95515.41;5042819;28;20237;-76
2022/10/21 01:47:11;;;;;;;28.00;15.27;;;;;;;7.31;97.17;95533.75;5040551;28;20194;-77
2022/10/21 01:49:42;;;;;;;23.80;14.10;;;;;;;7.30;98.21;95532.13;5043656;28;20654;-78
2022/10/21 01:52:11;;;;;;;24.27;14.97;;;;;;;7.27;98.33;95524.72;5039993;28;20175;-79
2022/10/21 01:54:43;;;;;;;25.70;15.00;;;;;;;7.26;97.82;95533.50;5037786;28;20356;-78
2022/10/21 01:57:13;;;;;;;24.33;15.03;;;;;;;7.27;97.35;95523.94;5044404;28;20225;-77
2022/10/21 01:59:42;;;;;;;24.10;15.47;;;;;;;7.33;96.62;95536.97;5037658;28;20202;-77
2022/10/21 02:02:11;;;;;;;24.80;15.63;;;;;;;7.31;96.45;95530.34;5042859;28;20268;-76
2022/10/21 02:04:42;;;;;;;23.03;14.87;;;;;;;7.26;96.48;95530.09;5040207;28;20190;-78
2022/10/21 02:07:09;;;;;;;25.97;15.27;;;;;;;7.13;97.56;95533.25;5045775;28;20206;-77
2022/10/21 02:09:36;;;;;;;25.70;15.30;;;;;;;7.14;97.75;95532.28;5037783;28;20195;-78
2022/10/21 02:12:05;;;;;;;25.77;15.53;;;;;;;7.16;97.44;95524.34;5038143;28;20187;-77
2022/10/21 02:14:35;;;;;;;25.60;14.67;;;;;;;7.13;97.50;95516.97;5041963;28;20558;-77
2022/10/21 02:17:03;;;;;;;24.67;14.70;;;;;;;7.20;97.08;95525.63;5039918;28;20245;-79
2022/10/21 02:19:31;;;;;;;22.30;14.60;;;;;;;7.02;98.54;95530.28;5041681;28;20589;-77
2022/10/21 02:22:02;;;;;;;27.63;14.90;;;;;;;6.99;98.96;95533.22;5049208;28;20194;-77
2022/10/21 02:24:35;;;;;;;25.07;15.00;;;;;;;6.97;99.25;95540.34;5041312;28;20207;-78
2022/10/21 02:27:02;;;;;;;25.93;15.60;;;;;;;6.93;99.16;95539.88;5043627;28;20190;-78
2022/10/21 02:29:34;;;;;;;25.70;15.87;;;;;;;7.01;98.02;95539.84;5043444;28;20206;-77
2022/10/21 02:32:15;;;;;;;26.73;15.03;;;;;;;6.93;97.83;95528.75;5046190;28;20245;-78
2022/10/21 02:34:55;;;;;;;25.37;14.83;;;;;;;6.94;98.02;95538.13;5047840;28;20611;-77
2022/10/21 02:37:30;;;;;;;25.30;14.30;;;;;;;6.90;98.56;95540.22;5044941;28;20221;-79
2022/10/21 02:40:03;;;;;;;26.63;15.57;;;;;;;6.83;99.23;95534.97;5040939;28;20186;-77
2022/10/21 02:42:34;;;;;;;22.77;14.60;;;;;;;6.94;98.35;95541.50;5037759;28;20284;-78
2022/10/21 02:45:02;;;;;;;24.50;15.27;;;;;;;6.91;97.96;95533.28;5036865;28;20548;-78
2022/10/21 02:47:29;;;;;;;26.43;15.00;;;;;;;6.98;97.89;95536.81;5038983;28;20249;-77
2022/10/21 02:49:57;;;;;;;28.27;15.90;;;;;;;6.93;98.17;95536.50;5043107;28;20663;-79
2022/10/21 02:52:24;;;;;;;35.90;17.43;;;;;;;6.89;98.06;95541.22;5042459;28;20197;-78
2022/10/21 02:54:50;;;;;;;33.70;16.60;;;;;;;6.77;99.12;95540.84;5044893;28;20194;-77
2022/10/21 02:57:17;;;;;;;29.30;17.37;;;;;;;6.76;98.58;95556.47;5036836;28;20264;-77
2022/10/21 02:59:44;;;;;;;36.70;17.27;;;;;;;6.83;98.42;95549.66;5041092;28;20203;-77
2022/10/21 03:02:11;;;;;;;31.70;17.30;;;;;;;6.70;98.05;95526.19;5046078;28;20198;-79
2022/10/21 03:04:38;;;;;;;30.27;16.90;;;;;;;6.80;97.96;95544.84;5042235;28;20643;-78
2022/10/21 03:07:06;;;;;;;33.93;19.07;;;;;;;6.66;98.16;95536.06;5048547;28;20252;-80
2022/10/21 03:09:33;;;;;;;43.43;23.50;;;;;;;6.75;98.22;95557.47;5048452;28;20209;-78
2022/10/21 03:12:00;;;;;;;49.67;25.53;;;;;;;6.67;98.97;95552.34;5042036;28;20718;-78
2022/10/21 03:14:26;;;;;;;54.03;26.10;;;;;;;6.67;99.13;95549.75;5036746;28;20198;-78
2022/10/21 03:16:53;;;;;;;47.67;25.10;;;;;;;6.73;98.28;95552.47;5042358;28;20201;-78
2022/10/21 03:19:20;;;;;;;51.40;25.53;;;;;;;6.74;98.34;95551.50;5050136;28;20602;-78
2022/10/21 03:21:47;;;;;;;46.20;24.20;;;;;;;6.72;98.60;95553.44;5039327;28;20197;-78
2022/10/21 03:24:15;;;;;;;43.03;22.60;;;;;;;6.75;98.08;95549.72;5040902;28;20226;-78
2022/10/21 03:26:42;;;;;;;41.53;22.73;;;;;;;6.72;98.10;95553.44;5039399;28;20195;-78
2022/10/21 03:29:09;;;;;;;41.30;23.70;;;;;;;6.68;97.13;95548.78;5041337;28;20201;-78
2022/10/21 03:31:36;;;;;;;46.83;24.87;;;;;;;6.71;97.88;95554.44;5045669;28;20271;-78
2022/10/21 03:34:03;;;;;;;48.70;25.33;;;;;;;6.68;97.31;95552.19;5038807;28;20195;-78
2022/10/21 03:36:29;;;;;;;52.07;24.07;;;;;;;6.63;97.11;95557.06;5040903;28;20206;-79
2022/10/21 03:38:56;;;;;;;46.73;25.40;;;;;;;6.54;97.89;95555.50;5039177;28;20336;-78
2022/10/21 03:41:24;;;;;;;46.87;26.67;;;;;;;6.57;97.71;95557.75;5041553;28;20199;-78
2022/10/21 03:43:51;;;;;;;55.73;25.03;;;;;;;6.54;97.93;95555.50;5042475;28;20758;-78
2022/10/21 03:46:18;;;;;;;46.03;25.67;;;;;;;6.61;97.87;95558.22;5041950;28;20723;-78
2022/10/21 03:48:45;;;;;;;46.70;25.57;;;;;;;6.59;98.17;95552.41;5048966;28;20190;-78
2022/10/21 03:51:11;;;;;;;61.00;33.93;;;;;;;6.54;97.92;95565.03;5034779;28;20217;-78
2022/10/21 03:53:38;;;;;;;55.10;31.60;;;;;;;6.52;97.73;95565.19;5042463;28;20578;-78
2022/10/21 03:56:08;;;;;;;55.47;30.53;;;;;;;6.50;97.55;95567.13;5043823;28;20264;-78
2022/10/21 03:58:36;;;;;;;60.20;31.70;;;;;;;6.51;97.85;95565.38;5044188;28;20190;-78
2022/10/21 04:01:03;;;;;;;65.27;31.23;;;;;;;6.40;98.07;95558.81;5042871;28;20198;-79
2022/10/21 04:03:31;;;;;;;48.03;27.20;;;;;;;6.42;97.78;95559.44;5042345;28;20218;-78
2022/10/21 04:06:00;;;;;;;51.57;26.83;;;;;;;6.46;97.68;95565.09;5036970;28;20202;-78
2022/10/21 04:08:29;;;;;;;65.80;40.50;;;;;;;6.38;98.40;95565.91;5045636;28;20194;-78
2022/10/21 04:10:57;;;;;;;65.80;38.80;;;;;;;6.36;98.40;95572.22;5045453;28;20248;-78
2022/10/21 04:13:24;;;;;;;71.10;39.47;;;;;;;6.31;99.15;95565.00;5049326;28;20209;-77
2022/10/21 04:15:57;;;;;;;71.80;38.60;;;;;;;6.20;99.16;95549.88;5047085;28;20198;-78
2022/10/21 04:18:24;;;;;;;60.37;35.63;;;;;;;6.32;98.70;95558.84;5049110;28;20191;-78
2022/10/21 04:20:51;;;;;;;58.17;34.13;;;;;;;6.34;98.46;95556.91;5043484;28;20559;-78
2022/10/21 04:23:18;;;;;;;58.27;31.53;;;;;;;6.28;97.83;95557.59;5044672;28;20210;-78
2022/10/21 04:25:45;;;;;;;56.10;30.27;;;;;;;6.23;98.33;95555.50;5039427;28;20248;-78
2022/10/21 04:28:12;;;;;;;54.57;30.20;;;;;;;6.23;98.69;95554.72;5047185;28;20487;-78
2022/10/21 04:30:39;;;;;;;55.73;29.20;;;;;;;6.21;97.89;95554.88;5043231;28;20254;-78
2022/10/21 04:33:07;;;;;;;55.53;30.30;;;;;;;6.20;98.40;95557.63;5047066;28;20194;-78
2022/10/21 04:35:34;;;;;;;57.83;29.83;;;;;;;6.14;98.44;95558.31;5048117;28;20209;-78
2022/10/21 04:38:00;;;;;;;48.03;28.80;;;;;;;6.11;99.16;95556.88;5042622;28;20195;-78
2022/10/21 04:40:27;;;;;;;53.10;26.87;;;;;;;6.16;98.97;95558.94;5048150;28;20274;-78
2022/10/21 04:42:54;;;;;;;61.10;27.57;;;;;;;6.18;98.43;95559.56;5041210;28;20704;-79
2022/10/21 04:45:21;;;;;;;54.20;28.73;;;;;;;6.15;98.49;95565.06;5044563;28;20669;-78
2022/10/21 04:47:47;;;;;;;57.73;31.10;;;;;;;6.11;98.93;95569.78;5043422;28;20203;-78
2022/10/21 04:50:16;;;;;;;40.27;25.93;;;;;;;6.08;98.92;95564.94;5042867;28;20626;-78
2022/10/21 04:52:43;;;;;;;35.97;22.30;;;;;;;6.02;100.00;95564.78;5045361;28;20248;-78
2022/10/21 04:55:09;;;;;;;39.33;21.13;;;;;;;6.02;100.00;95567.38;5042283;28;20190;-78
2022/10/21 04:57:36;;;;;;;36.97;18.40;;;;;;;5.89;100.00;95552.41;5042249;28;20215;-78
2022/10/21 05:00:04;;;;;;;38.23;20.67;;;;;;;5.95;100.00;95563.84;5041686;28;20251;-79
2022/10/21 05:02:31;;;;;;;34.47;19.07;;;;;;;5.91;100.00;95567.75;5040786;28;20636;-78
2022/10/21 05:04:58;;;;;;;46.77;20.30;;;;;;;5.83;100.00;95572.91;5032722;28;20291;-78
2022/10/21 05:07:26;;;;;;;42.17;21.03;;;;;;;5.79;100.00;95566.44;5043877;28;20657;-77
2022/10/21 05:09:53;;;;;;;43.93;22.43;;;;;;;5.80;100.00;95562.91;5040520;28;20194;-77
2022/10/21 05:12:20;;;;;;;44.17;25.50;;;;;;;5.82;100.00;95566.94;5042105;28;20664;-78
2022/10/21 05:14:46;;;;;;;61.40;27.63;;;;;;;5.77;100.00;95566.63;5042271;28;20669;-78
2022/10/21 05:17:13;;;;;;;55.63;27.77;;;;;;;5.74;100.00;95567.75;5044483;28;20244;-78
2022/10/21 05:19:40;;;;;;;56.93;27.67;;;;;;;5.89;100.00;95567.91;5041332;28;20194;-78
2022/10/21 05:22:09;;;;;;;51.60;26.73;;;;;;;6.01;100.00;95570.91;5042933;28;20194;-79
2022/10/21 05:24:37;;;;;;;62.00;28.37;;;;;;;6.01;100.00;95558.00;5040625;28;20762;-79
2022/10/21 05:27:04;;;;;;;56.90;25.33;;;;;;;6.06;100.00;95569.44;5047194;28;20251;-77
2022/10/21 05:29:31;;;;;;;47.47;25.57;;;;;;;6.09;100.00;95581.22;5049766;28;20252;-77
2022/10/21 05:32:01;;;;;;;61.07;28.23;;;;;;;6.11;100.00;95569.78;5046649;28;20191;-78
2022/10/21 05:34:28;;;;;;;55.87;29.20;;;;;;;6.17;100.00;95568.28;5045223;28;20200;-79
2022/10/21 05:36:55;;;;;;;58.83;29.77;;;;;;;6.24;100.00;95567.44;5044395;28;20201;-78
2022/10/21 05:39:22;;;;;;;66.50;31.57;;;;;;;6.26;100.00;95573.22;5040755;28;20203;-78
2022/10/21 05:41:50;;;;;;;67.43;32.10;;;;;;;6.25;100.00;95578.56;5047930;28;20209;-79
2022/10/21 05:44:17;;;;;;;61.97;32.13;;;;;;;6.31;100.00;95580.47;5048682;28;20230;-78
2022/10/21 05:46:43;;;;;;;67.57;32.53;;;;;;;6.40;100.00;95581.25;5041173;28;20194;-78
2022/10/21 05:49:11;;;;;;;59.20;31.77;;;;;;;6.45;100.00;95584.94;5042186;28;20205;-78
2022/10/21 05:51:38;;;;;;;64.53;31.67;;;;;;;6.48;100.00;95586.38;5038825;28;20198;-79
2022/10/21 05:54:05;;;;;;;65.07;29.63;;;;;;;6.53;100.00;95586.66;5040159;28;20191;-79
2022/10/21 05:56:32;;;;;;;62.20;30.10;;;;;;;6.59;100.00;95596.31;5039457;28;20199;-78
2022/10/21 05:59:00;;;;;;;62.80;30.90;;;;;;;6.60;100.00;95596.16;5043746;28;20208;-78
2022/10/21 06:01:27;;;;;;;62.87;33.87;;;;;;;6.71;100.00;95602.69;5048806;28;20190;-79
2022/10/21 06:03:54;;;;;;;61.07;31.33;;;;;;;6.78;99.82;95606.22;5039691;28;20214;-78
2022/10/21 06:06:21;;;;;;;74.50;34.27;;;;;;;6.82;100.00;95605.69;5043733;28;20216;-78
2022/10/21 06:08:48;;;;;;;58.53;28.90;;;;;;;6.91;100.00;95615.97;5042297;28;20195;-79
2022/10/21 06:11:17;;;;;;;54.37;26.23;;;;;;;6.92;100.00;95617.59;5045954;28;20255;-78
2022/10/21 06:13:44;;;;;;;45.70;23.30;;;;;;;7.02;100.00;95626.72;5040808;28;20645;-78
2022/10/21 06:16:13;;;;;;;51.13;29.10;;;;;;;7.06;100.00;95627.19;5041721;28;20203;-79
2022/10/21 06:18:41;;;;;;;52.17;31.43;;;;;;;7.21;100.00;95633.22;5045380;28;20195;-78
2022/10/21 06:21:09;;;;;;;60.07;32.20;;;;;;;7.25;100.00;95624.13;5047418;28;20649;-79
2022/10/21 06:23:36;;;;;;;51.20;29.20;;;;;;;7.30;100.00;95620.03;5039545;28;20214;-79
2022/10/21 06:26:05;;;;;;;45.70;27.03;;;;;;;7.34;100.00;95630.84;5043019;28;20197;-78
2022/10/21 06:28:34;;;;;;;53.90;27.93;;;;;;;7.41;100.00;95632.59;5045754;28;20206;-79
2022/10/21 06:31:01;;;;;;;44.67;28.40;;;;;;;7.45;100.00;95630.44;5043175;28;20202;-78
2022/10/21 06:33:29;;;;;;;49.67;28.63;;;;;;;7.36;100.00;95621.94;5045864;28;20289;-79
2022/10/21 06:35:56;;;;;;;40.13;25.23;;;;;;;7.31;100.00;95629.41;5039969;28;20199;-78
2022/10/21 06:38:24;;;;;;;46.97;26.50;;;;;;;7.42;100.00;95634.16;5039654;28;20202;-78
2022/10/21 06:40:51;;;;;;;42.73;25.43;;;;;;;7.45;100.00;95627.84;5045923;28;20194;-78
2022/10/21 06:43:19;;;;;;;45.13;24.97;;;;;;;7.53;100.00;95640.72;5039854;28;20604;-77
2022/10/21 06:45:45;;;;;;;40.37;24.40;;;;;;;7.58;100.00;95638.41;5037857;28;20199;-79
2022/10/21 06:48:13;;;;;;;45.90;26.13;;;;;;;7.63;100.00;95637.88;5023078;28;20201;-78
2022/10/21 06:50:41;;;;;;;44.20;26.87;;;;;;;7.57;100.00;95630.81;5042751;28;20221;-78
2022/10/21 06:53:08;;;;;;;58.13;32.33;;;;;;;7.50;100.00;95622.97;5036660;28;20573;-79
2022/10/21 06:55:34;;;;;;;59.63;34.50;;;;;;;7.54;100.00;95637.16;5045732;28;20263;-78
2022/10/21 06:58:01;;;;;;;57.27;33.73;;;;;;;7.58;100.00;95635.84;5046204;28;20190;-78
2022/10/21 07:00:28;;;;;;;61.90;33.30;;;;;;;7.66;100.00;95640.94;5034802;28;20201;-79
2022/10/21 07:02:56;;;;;;;55.40;33.90;;;;;;;7.72;100.00;95644.59;5045246;28;20229;-77
2022/10/21 07:05:22;;;;;;;61.20;33.03;;;;;;;7.76;100.00;95638.88;5040099;28;20219;-77
2022/10/21 07:07:50;;;;;;;51.77;30.67;;;;;;;7.83;100.00;95641.56;5037247;28;20241;-78
2022/10/21 07:10:17;;;;;;;52.43;30.33;;;;;;;7.92;100.00;95638.75;5039548;28;20688;-76
2022/10/21 07:12:45;;;;;;;51.67;29.83;;;;;;;7.98;100.00;95639.81;5037712;28;20310;-78
2022/10/21 07:15:12;;;;;;;44.10;25.40;;;;;;;8.05;100.00;95635.56;5040280;28;20189;-77
2022/10/21 07:17:39;;;;;;;42.57;25.90;;;;;;;8.19;100.00;95649.47;5044601;28;20213;-76
2022/10/21 07:20:07;;;;;;;36.77;20.33;;;;;;;8.24;100.00;95642.78;5046404;28;20198;-78
2022/10/21 07:22:34;;;;;;;30.60;17.10;;;;;;;8.37;100.00;95639.56;5039017;28;20198;-78
2022/10/21 07:25:02;;;;;;;32.33;15.80;;;;;;;8.47;100.00;95638.31;5044635;28;20214;-77
2022/10/21 07:27:29;;;;;;;25.23;15.47;;;;;;;8.59;100.00;95649.03;5037927;28;20194;-77
2022/10/21 07:29:56;;;;;;;27.50;16.00;;;;;;;8.69;100.00;95640.97;5045497;28;20186;-77
2022/10/21 07:32:22;;;;;;;25.87;15.67;;;;;;;8.79;100.00;95639.72;5045883;28;20263;-78
2022/10/21 07:34:49;;;;;;;28.67;15.83;;;;;;;8.83;100.00;95646.13;5044716;28;20190;-78
2022/10/21 07:37:16;;;;;;;23.90;14.70;;;;;;;8.86;100.00;95634.59;5049163;28;20213;-77
2022/10/21 07:39:43;;;;;;;26.90;15.53;;;;;;;8.99;100.00;95635.53;5051091;28;20717;-78
2022/10/21 07:42:11;;;;;;;26.57;15.30;;;;;;;9.13;100.00;95642.47;5043692;28;20202;-78
2022/10/21 07:44:38;;;;;;;22.00;14.70;;;;;;;9.21;100.00;95636.34;5030341;28;20219;-77
2022/10/21 07:47:04;;;;;;;29.17;15.43;;;;;;;9.24;100.00;95635.16;5034282;28;20277;-78
2022/10/21 07:49:31;;;;;;;37.97;15.23;;;;;;;9.26;100.00;95633.22;5034054;28;20203;-78
2022/10/21 07:51:58;;;;;;;28.03;15.83;;;;;;;9.30;100.00;95626.66;5034162;28;20198;-77
2022/10/21 07:54:25;;;;;;;30.97;15.63;;;;;;;9.41;100.00;95631.34;5033710;28;20619;-79
2022/10/21 07:56:52;;;;;;;27.53;15.40;;;;;;;9.43;100.00;95635.38;5033458;28;20656;-78
2022/10/21 07:59:22;;;;;;;27.43;15.47;;;;;;;9.49;100.00;95629.44;5033243;28;20206;-77
2022/10/21 08:01:49;;;;;;;27.30;14.47;;;;;;;9.59;100.00;95629.91;5033402;28;20191;-76
2022/10/21 08:04:18;;;;;;;24.80;14.93;;;;;;;9.69;100.00;95627.81;5032893;28;20218;-77
2022/10/21 08:06:46;;;;;;;27.63;15.63;;;;;;;9.77;98.48;95628.66;5033931;28;20227;-78
2022/10/21 08:09:13;;;;;;;28.23;15.23;;;;;;;9.88;99.84;95623.75;5033812;28;20191;-77
2022/10/21 08:11:40;;;;;;;28.07;15.50;;;;;;;9.91;98.68;95607.78;5033896;28;20191;-77
2022/10/21 08:14:09;;;;;;;25.43;15.23;;;;;;;10.03;98.36;95616.66;5025061;28;20673;-78
2022/10/21 08:16:37;;;;;;;25.43;13.73;;;;;;;10.16;97.27;95615.94;5033996;28;20187;-79
2022/10/21 08:19:05;;;;;;;24.20;14.43;;;;;;;10.25;97.00;95620.00;5033715;28;20592;-77
2022/10/21 08:21:32;;;;;;;28.33;15.17;;;;;;;10.30;97.17;95612.44;5033130;28;20191;-77
2022/10/21 08:24:01;;;;;;;30.60;16.00;;;;;;;10.44;96.88;95615.91;5033473;28;20195;-76
2022/10/21 08:26:28;;;;;;;22.70;15.00;;;;;;;10.67;95.26;95613.81;5033573;28;20694;-77
2022/10/21 08:28:55;;;;;;;29.77;15.77;;;;;;;10.88;94.41;95616.25;5033510;28;20616;-76
2022/10/21 08:31:23;;;;;;;24.37;14.50;;;;;;;11.05;92.66;95620.13;5033311;28;20305;-75
2022/10/21 08:33:51;;;;;;;27.10;15.17;;;;;;;11.28;91.51;95622.38;5033958;28;20576;-76
2022/10/21 08:36:19;;;;;;;25.30;15.60;;;;;;;11.65;90.32;95623.59;5033284;28;20194;-78
2022/10/21 08:38:47;;;;;;;27.67;15.07;;;;;;;12.01;88.32;95618.78;5033329;28;20201;-78
2022/10/21 08:41:41;;;;;;;30.27;14.27;;;;;;;12.40;86.32;95626.56;5031671;28;20225;-77
2022/10/21 08:44:19;;;;;;;26.43;14.77;;;;;;;12.56;84.11;95616.66;5025155;28;20226;-77
2022/10/21 08:46:49;;;;;;;24.63;14.83;;;;;;;12.64;83.45;95613.84;5021808;28;20202;-78
2022/10/21 08:49:22;;;;;;;25.07;16.20;;;;;;;13.12;83.15;95627.28;5019515;28;20191;-77
2022/10/21 08:51:54;;;;;;;34.43;15.10;;;;;;;13.50;80.90;95626.25;5026238;28;20245;-77
2022/10/21 08:54:24;;;;;;;27.77;14.53;;;;;;;13.88;78.21;95607.84;5019975;28;20211;-77
2022/10/21 08:56:57;;;;;;;26.00;14.77;;;;;;;14.11;77.32;95617.72;5022039;28;20290;-78
2022/10/21 08:59:26;;;;;;;27.73;15.27;;;;;;;14.18;75.07;95602.75;5028007;28;20194;-77
2022/10/21 09:02:01;;;;;;;26.30;15.10;;;;;;;14.76;74.43;95609.16;5025267;28;20612;-79
2022/10/21 09:04:39;;;;;;;26.93;14.80;;;;;;;15.30;71.42;95602.22;5024897;28;20215;-78
2022/10/21 09:07:13;;;;;;;24.50;14.23;;;;;;;15.65;69.99;95605.75;5019777;28;20290;-78
2022/10/21 09:09:45;;;;;;;22.33;13.97;;;;;;;16.11;68.32;95599.72;5022181;28;20195;-77
2022/10/21 09:12:22;;;;;;;21.33;13.70;;;;;;;16.33;66.16;95597.34;5023354;28;20194;-79
2022/10/21 09:15:19;;;;;;;20.20;13.67;;;;;;;16.67;64.67;95600.94;5032062;28;20249;-79
2022/10/21 09:18:03;;;;;;;26.50;14.50;;;;;;;16.98;64.46;95593.44;5025483;28;20199;-78
2022/10/21 09:20:48;;;;;;;22.17;14.17;;;;;;;17.25;62.44;95611.25;5023505;28;20187;-78
2022/10/21 09:23:48;;;;;;;25.70;13.73;;;;;;;17.09;61.98;95599.66;5019027;28;20188;-78
2022/10/21 09:26:29;;;;;;;20.57;13.90;;;;;;;17.57;61.39;95594.00;5031974;28;20203;-78
2022/10/21 09:28:56;;;;;;;26.63;14.57;;;;;;;18.08;59.51;95583.22;5029487;28;20198;-79
2022/10/21 09:31:23;;;;;;;20.90;14.20;;;;;;;18.43;58.73;95588.16;5023945;28;20199;-78
2022/10/21 09:33:57;;;;;;;25.27;14.00;;;;;;;18.84;57.46;95586.88;5024775;28;20262;-78
2022/10/21 09:36:31;;;;;;;24.93;14.30;;;;;;;19.24;55.98;95579.41;5029564;28;20186;-78
2022/10/21 09:39:02;;;;;;;24.37;13.70;;;;;;;19.57;54.43;95594.22;5016087;28;20642;-79
2022/10/21 09:41:33;;;;;;;26.48;14.25;;;;;;;19.83;53.06;95578.63;5018630;28;20190;-79
2022/10/21 09:44:00;;;;;;;19.67;14.07;;;;;;;19.73;52.11;95600.44;5032125;28;20601;-78
2022/10/21 09:46:27;;;;;;;22.63;14.32;;;;;;;19.81;52.88;95592.84;5042728;28;20218;-78
2022/10/21 09:48:55;;;;;;;20.48;13.35;;;;;;;19.92;51.72;95595.56;5043143;28;20213;-78
2022/10/21 09:51:28;;;;;;;18.15;13.10;;;;;;;20.13;50.51;95590.19;5046277;28;20201;-78
2022/10/21 09:54:00;;;;;;;23.40;13.65;;;;;;;20.56;50.30;95598.91;5044520;28;20182;-78
2022/10/21 09:56:33;;;;;;;18.80;12.93;;;;;;;20.60;48.92;95602.63;5043241;28;20192;-78
2022/10/21 09:59:06;;;;;;;19.98;13.32;;;;;;;21.20;47.99;95607.38;5043396;28;20205;-78
2022/10/21 10:01:33;;;;;;;18.75;13.98;;;;;;;21.47;46.79;95602.69;5040008;28;20197;-78
2022/10/21 10:04:01;;;;;;;22.17;13.70;;;;;;;21.76;46.55;95592.41;5043569;28;20665;-78
2022/10/21 10:06:34;;;;;;;21.08;13.13;;;;;;;22.17;45.37;95586.03;5037609;28;20218;-76
2022/10/21 10:09:17;;;;;;;18.98;12.57;;;;;;;22.59;44.83;95591.78;5042757;28;20190;-78
2022/10/21 10:11:53;;;;;;;23.88;12.73;;;;;;;23.09;42.82;95582.03;5040964;28;20190;-77
2022/10/21 10:14:32;;;;;;;20.48;12.70;;;;;;;23.47;42.10;95570.72;5048581;28;20274;-78
2022/10/21 10:17:20;;;;;;;19.02;12.93;;;;;;;23.57;40.49;95568.00;5043102;28;20190;-78
2022/10/21 10:20:08;;;;;;;26.58;13.57;;;;;;;22.52;42.28;95569.25;5037246;28;20199;-78
2022/10/21 10:22:40;;;;;;;16.15;12.10;;;;;;;22.96;41.79;95574.69;5041951;28;20255;-77
2022/10/21 10:25:08;;;;;;;19.40;12.60;;;;;;;23.29;40.86;95576.63;5043227;28;20221;-77
2022/10/21 10:27:35;;;;;;;21.80;14.13;;;;;;;23.59;40.67;95578.34;5046998;28;20297;-78
2022/10/21 10:30:03;;;;;;;21.60;13.05;;;;;;;23.85;40.17;95568.31;5043045;28;20261;-78
2022/10/21 10:32:36;;;;;;;18.85;12.68;;;;;;;23.76;39.63;95577.94;5040561;28;20537;-78
2022/10/21 10:35:07;;;;;;;19.25;11.90;;;;;;;23.88;38.90;95565.09;5042448;28;20186;-78
2022/10/21 10:37:36;;;;;;;19.13;12.48;;;;;;;24.07;38.44;95574.75;5040854;28;20218;-78
2022/10/21 10:40:09;;;;;;;18.90;11.77;;;;;;;24.21;38.98;95566.97;5042995;28;20194;-76
2022/10/21 10:42:42;;;;;;;17.77;13.02;;;;;;;24.37;38.24;95564.94;5040919;28;20237;-79
2022/10/21 10:45:18;;;;;;;21.58;12.93;;;;;;;24.83;37.04;95552.72;5050924;28;20217;-78
2022/10/21 10:47:49;;;;;;;21.63;12.65;;;;;;;25.11;36.25;95549.16;5048214;28;20204;-78
2022/10/21 10:50:45;;;;;;;18.33;12.40;;;;;;;25.38;35.20;95548.53;5051002;28;20190;-77
2022/10/21 10:53:23;;;;;;;21.23;12.30;;;;;;;25.64;35.13;95543.63;5048623;28;20742;-78
2022/10/21 10:55:57;;;;;;;19.15;12.25;;;;;;;25.79;34.63;95544.19;5048237;28;20862;-77
2022/10/21 10:58:28;;;;;;;15.82;11.32;;;;;;;25.82;34.80;95538.28;5045203;28;20251;-77
2022/10/21 11:00:59;;;;;;;16.70;11.80;;;;;;;25.43;34.65;95543.13;5050892;28;20625;-78
2022/10/21 11:03:33;;;;;;;18.38;11.48;;;;;;;25.36;34.05;95534.72;5049967;28;20194;-78
2022/10/21 11:06:12;;;;;;;18.52;11.55;;;;;;;25.40;33.72;95533.03;5050937;28;20217;-78
2022/10/21 11:08:44;;;;;;;18.52;11.23;;;;;;;25.52;33.88;95525.44;5050862;28;20189;-78
2022/10/21 11:11:15;;;;;;;15.57;10.65;;;;;;;25.59;33.85;95519.75;5050720;28;20194;-78
2022/10/21 11:13:41;;;;;;;14.60;11.13;;;;;;;25.32;34.43;95517.72;5042560;28;20259;-78
2022/10/21 11:16:24;;;;;;;16.50;11.55;;;;;;;25.38;34.80;95514.72;5050894;28;20248;-78
2022/10/21 11:18:59;;;;;;;15.38;10.90;;;;;;;25.20;34.28;95504.84;5050871;28;20252;-77
2022/10/21 11:21:42;;;;;;;18.70;10.25;;;;;;;24.78;35.41;95516.34;5048299;28;20186;-77
2022/10/21 11:24:37;;;;;;;15.02;10.40;;;;;;;25.17;34.83;95516.09;5048782;28;20252;-77
2022/10/21 11:27:11;;;;;;;17.67;11.35;;;;;;;25.52;34.24;95506.81;5048527;28;20218;-78
2022/10/21 11:29:53;;;;;;;16.40;10.52;;;;;;;25.78;34.23;95494.66;5050345;28;20198;-77
2022/10/21 11:32:32;;;;;;;14.10;9.88;;;;;;;26.16;33.03;95495.34;5047880;28;20186;-77
2022/10/21 11:35:05;;;;;;;16.70;10.73;;;;;;;26.44;33.22;95494.25;5050692;28;20201;-78